Time;durP1;ratioP1;P1;durP2;ratioP2;P2;SDS_P1;SDS_P2;PMS_P1;PMS_P2;Temp;Humidity;BMP_temperature;BMP_pressure;BME280_temperature;BME280_humidity;BME280_pressure;Samples;Min_cycle;Max_cycle;Signal;HPM_P1;HPM_P2
2022/08/20 00:01:04;;;;;;;9.30;3.08;;;19.80;99.90;;;;;;5101075;27;20401;-70
2022/08/20 00:03:33;;;;;;;8.73;3.42;;;19.80;99.90;;;;;;5103343;28;20043;-71
2022/08/20 00:06:06;;;;;;;10.93;3.10;;;19.80;99.90;;;;;;5090978;28;20047;-71
2022/08/20 00:08:32;;;;;;;12.45;3.65;;;19.80;99.90;;;;;;5074006;28;20482;-71
2022/08/20 00:10:59;;;;;;;11.18;3.90;;;19.80;99.90;;;;;;5101884;28;20035;-71
2022/08/20 00:13:35;;;;;;;11.80;4.30;;;19.80;99.90;;;;;;5101267;28;20039;-71
2022/08/20 00:16:02;;;;;;;12.68;3.83;;;19.80;99.90;;;;;;5100234;28;20035;-71
2022/08/20 00:18:28;;;;;;;10.15;3.65;;;19.70;99.90;;;;;;5100205;28;20040;-71
2022/08/20 00:20:55;;;;;;;11.57;3.65;;;19.70;99.90;;;;;;5102483;28;20152;-71
2022/08/20 00:23:22;;;;;;;10.50;3.25;;;19.70;99.90;;;;;;5098605;28;20135;-71
2022/08/20 00:25:50;;;;;;;11.40;3.97;;;19.70;99.90;;;;;;5094647;28;20051;-71
2022/08/20 00:28:16;;;;;;;12.18;3.72;;;19.70;99.90;;;;;;5097785;28;20388;-71
2022/08/20 00:30:43;;;;;;;10.30;3.70;;;19.70;99.90;;;;;;5102312;28;20116;-72
2022/08/20 00:33:13;;;;;;;11.45;3.97;;;19.70;99.90;;;;;;5102703;28;20052;-71
2022/08/20 00:35:42;;;;;;;13.23;3.72;;;19.70;99.90;;;;;;5103026;28;20078;-71
2022/08/20 00:38:08;;;;;;;13.57;3.90;;;19.70;99.90;;;;;;5100346;28;20430;-71
2022/08/20 00:40:38;;;;;;;13.27;4.80;;;19.60;99.90;;;;;;5104061;28;20430;-71
2022/08/20 00:43:22;;;;;;;10.98;3.67;;;19.60;99.90;;;;;;5102784;28;20050;-71
2022/08/20 00:45:49;;;;;;;12.88;3.72;;;19.60;99.90;;;;;;5098244;28;20051;-71
2022/08/20 00:48:15;;;;;;;10.60;4.05;;;19.60;99.90;;;;;;5101805;28;20520;-71
2022/08/20 00:50:41;;;;;;;9.05;3.72;;;19.60;99.90;;;;;;5101111;28;20574;-71
2022/08/20 00:53:07;;;;;;;16.30;4.65;;;19.60;99.90;;;;;;5099628;28;20133;-70
2022/08/20 00:55:34;;;;;;;9.02;3.55;;;19.60;99.90;;;;;;5104069;28;20395;-70
2022/08/20 00:58:07;;;;;;;13.90;3.85;;;19.60;99.90;;;;;;5105270;27;20039;-71
2022/08/20 01:00:39;;;;;;;11.88;4.00;;;19.60;99.90;;;;;;5123403;27;20047;-71
2022/08/20 01:03:08;;;;;;;11.30;4.28;;;19.60;99.90;;;;;;5144070;27;20585;-70
2022/08/20 01:05:36;;;;;;;11.07;4.03;;;19.50;99.90;;;;;;5108288;27;20045;-70
2022/08/20 01:08:02;;;;;;;12.35;4.28;;;19.50;99.90;;;;;;5141615;27;20173;-70
2022/08/20 01:10:35;;;;;;;8.93;4.10;;;19.50;99.90;;;;;;5125402;27;20380;-68
2022/08/20 01:13:08;;;;;;;10.90;3.75;;;19.40;99.90;;;;;;5124012;27;20046;-69
2022/08/20 01:15:38;;;;;;;12.48;4.30;;;19.40;99.90;;;;;;5124152;27;20050;-69
2022/08/20 01:18:06;;;;;;;11.85;3.78;;;19.30;99.90;;;;;;5145407;27;20034;-68
2022/08/20 01:20:47;;;;;;;13.63;3.63;;;19.40;99.90;;;;;;5126357;27;20049;-69
2022/08/20 01:23:42;;;;;;;10.75;3.85;;;19.30;99.90;;;;;;5132437;27;20049;-70
2022/08/20 01:26:13;;;;;;;10.98;3.92;;;19.30;99.90;;;;;;5131390;27;20051;-70
2022/08/20 01:29:04;;;;;;;12.85;3.90;;;19.30;99.90;;;;;;5130324;27;20419;-70
2022/08/20 01:31:34;;;;;;;9.27;3.75;;;19.30;99.90;;;;;;5100305;27;20058;-70
2022/08/20 01:34:02;;;;;;;11.40;3.92;;;19.20;99.90;;;;;;5149078;27;20475;-70
2022/08/20 01:36:35;;;;;;;9.93;4.13;;;19.20;99.90;;;;;;5132829;27;20503;-70
2022/08/20 01:39:02;;;;;;;12.15;3.97;;;19.20;99.90;;;;;;5151829;27;20039;-70
2022/08/20 01:41:55;;;;;;;16.58;4.78;;;19.10;99.90;;;;;;5151004;27;20034;-70
2022/08/20 01:44:21;;;;;;;8.73;4.38;;;19.10;99.90;;;;;;5148925;27;20138;-70
2022/08/20 01:46:50;;;;;;;8.68;4.15;;;19.00;99.90;;;;;;5160087;27;20117;-70
2022/08/20 01:49:28;;;;;;;10.48;4.22;;;19.00;99.90;;;;;;5154143;27;20564;-70
2022/08/20 01:51:58;;;;;;;13.05;4.20;;;18.90;99.90;;;;;;5154212;27;20046;-70
2022/08/20 01:54:24;;;;;;;12.52;4.45;;;19.00;99.90;;;;;;5141232;27;20410;-70
2022/08/20 01:57:01;;;;;;;9.70;3.95;;;18.90;99.90;;;;;;5131435;27;20043;-71
2022/08/20 01:59:28;;;;;;;10.30;4.13;;;18.90;99.90;;;;;;5135407;27;20061;-71
2022/08/20 02:01:57;;;;;;;10.48;3.40;;;18.80;99.90;;;;;;5133079;27;20050;-71
2022/08/20 02:04:24;;;;;;;10.05;4.03;;;18.80;99.90;;;;;;5130310;27;20049;-71
2022/08/20 02:06:54;;;;;;;10.38;3.72;;;18.70;99.90;;;;;;5159329;27;20085;-71
2022/08/20 02:09:20;;;;;;;10.50;4.22;;;18.70;99.90;;;;;;5147144;27;20473;-70
2022/08/20 02:11:46;;;;;;;7.38;3.47;;;18.70;99.90;;;;;;5145881;27;20043;-71
2022/08/20 02:14:13;;;;;;;12.48;4.50;;;18.60;99.90;;;;;;5158795;27;20035;-70
2022/08/20 02:16:42;;;;;;;9.82;4.05;;;18.60;99.90;;;;;;5145262;27;20431;-70
2022/08/20 02:19:19;;;;;;;10.18;4.13;;;18.60;99.90;;;;;;5157710;27;20563;-71
2022/08/20 02:21:49;;;;;;;10.35;4.38;;;18.50;99.90;;;;;;5142357;27;20050;-70
2022/08/20 02:24:15;;;;;;;12.73;4.15;;;18.50;99.90;;;;;;5120412;27;20035;-71
2022/08/20 02:26:42;;;;;;;9.63;4.00;;;18.40;99.90;;;;;;5150973;27;20490;-70
2022/08/20 02:29:10;;;;;;;11.43;4.18;;;18.40;99.90;;;;;;5130561;27;20042;-71
2022/08/20 02:31:37;;;;;;;10.95;4.07;;;18.40;99.90;;;;;;5132640;27;20061;-70
2022/08/20 02:34:04;;;;;;;11.57;4.32;;;18.40;99.90;;;;;;5134905;27;20043;-70
2022/08/20 02:36:31;;;;;;;9.70;3.80;;;18.30;99.90;;;;;;5141145;27;20056;-71
2022/08/20 02:38:57;;;;;;;9.82;3.60;;;18.30;99.90;;;;;;5129109;27;20035;-71
2022/08/20 02:41:23;;;;;;;8.68;3.30;;;18.30;99.90;;;;;;5151181;27;20131;-70
2022/08/20 02:43:50;;;;;;;10.70;3.30;;;18.30;99.90;;;;;;5154227;27;20509;-70
2022/08/20 02:46:17;;;;;;;10.93;3.55;;;18.20;99.90;;;;;;5138963;27;20042;-71
2022/08/20 02:48:43;;;;;;;9.38;3.13;;;18.20;99.90;;;;;;5132259;27;20049;-70
2022/08/20 02:51:09;;;;;;;11.85;3.53;;;18.20;99.90;;;;;;5132161;27;20099;-70
2022/08/20 02:53:40;;;;;;;10.60;3.40;;;18.20;99.90;;;;;;5133569;27;20490;-71
2022/08/20 02:56:05;;;;;;;13.43;3.90;;;18.10;99.90;;;;;;5131200;27;20053;-71
2022/08/20 02:58:32;;;;;;;11.15;3.13;;;18.10;99.90;;;;;;5109762;27;20055;-71
2022/08/20 03:00:58;;;;;;;8.43;3.38;;;18.10;99.90;;;;;;5118471;27;20088;-70
2022/08/20 03:03:24;;;;;;;9.73;2.95;;;18.00;99.90;;;;;;5126423;27;20046;-71
2022/08/20 03:05:53;;;;;;;12.30;3.50;;;18.00;99.90;;;;;;5108299;27;20411;-71
2022/08/20 03:08:20;;;;;;;12.10;4.07;;;18.00;99.90;;;;;;5116757;27;20043;-71
2022/08/20 03:10:47;;;;;;;12.52;2.92;;;18.00;99.90;;;;;;5115315;27;20043;-71
2022/08/20 03:13:14;;;;;;;12.50;2.97;;;17.90;99.90;;;;;;5103868;27;20058;-70
2022/08/20 03:15:44;;;;;;;10.23;3.05;;;17.90;99.90;;;;;;5124167;27;20053;-70
2022/08/20 03:18:11;;;;;;;8.80;3.07;;;17.90;99.90;;;;;;5122956;27;20104;-71
2022/08/20 03:20:37;;;;;;;11.68;2.80;;;17.80;99.90;;;;;;5118117;27;20068;-70
2022/08/20 03:23:03;;;;;;;11.60;3.08;;;17.80;99.90;;;;;;5105100;27;20095;-71
2022/08/20 03:25:29;;;;;;;10.48;2.78;;;17.80;99.90;;;;;;5123602;27;20035;-71
2022/08/20 03:27:55;;;;;;;10.50;2.65;;;17.80;99.90;;;;;;5125530;27;20459;-70
2022/08/20 03:30:23;;;;;;;9.43;3.20;;;17.80;99.90;;;;;;5118558;27;20078;-71
2022/08/20 03:32:49;;;;;;;9.95;2.90;;;17.70;99.90;;;;;;5118233;27;20116;-70
2022/08/20 03:35:16;;;;;;;12.25;2.90;;;17.70;99.90;;;;;;5105406;27;20047;-71
2022/08/20 03:37:43;;;;;;;11.55;2.83;;;17.70;99.90;;;;;;5123125;27;20047;-70
2022/08/20 03:40:14;;;;;;;11.18;2.50;;;17.70;99.90;;;;;;5116903;27;20047;-70
2022/08/20 03:42:40;;;;;;;11.25;2.50;;;17.70;99.90;;;;;;5115962;27;20510;-70
2022/08/20 03:45:08;;;;;;;12.23;2.50;;;17.70;99.90;;;;;;5127072;27;20031;-70
2022/08/20 03:47:34;;;;;;;9.73;2.17;;;17.70;99.90;;;;;;5125451;27;20036;-70
2022/08/20 03:50:03;;;;;;;7.65;1.95;;;17.60;99.90;;;;;;5100946;27;20378;-71
2022/08/20 03:52:28;;;;;;;9.13;2.05;;;17.60;99.90;;;;;;5121542;27;20506;-71
2022/08/20 03:54:55;;;;;;;9.30;2.40;;;17.60;99.90;;;;;;5117077;27;20184;-70
2022/08/20 03:57:21;;;;;;;8.05;1.80;;;17.50;99.90;;;;;;5116024;27;20075;-70
2022/08/20 03:59:47;;;;;;;12.25;2.47;;;17.50;99.90;;;;;;5121893;27;20046;-71
2022/08/20 04:02:13;;;;;;;9.25;2.20;;;17.50;99.90;;;;;;5131682;27;20046;-71
2022/08/20 04:04:40;;;;;;;15.25;2.25;;;17.40;99.90;;;;;;5131647;27;20487;-70
2022/08/20 04:07:24;;;;;;;12.48;2.13;;;17.40;99.90;;;;;;5131357;27;20122;-71
2022/08/20 04:09:55;;;;;;;11.45;2.30;;;17.30;99.90;;;;;;5126616;27;20744;-71
2022/08/20 04:12:22;;;;;;;11.57;2.45;;;17.20;99.90;;;;;;5133881;27;20116;-70
2022/08/20 04:14:49;;;;;;;11.10;2.35;;;17.20;99.90;;;;;;5110673;27;20066;-71
2022/08/20 04:17:16;;;;;;;8.50;1.95;;;17.20;99.90;;;;;;5126134;27;20114;-70
2022/08/20 04:19:43;;;;;;;10.20;1.90;;;17.10;99.90;;;;;;5111335;27;20126;-70
2022/08/20 04:22:12;;;;;;;8.90;1.85;;;17.10;99.90;;;;;;5109271;27;20100;-71
2022/08/20 04:24:39;;;;;;;10.73;2.05;;;17.10;99.90;;;;;;5125549;27;20046;-73
2022/08/20 04:27:05;;;;;;;11.63;2.25;;;17.10;99.90;;;;;;5123031;27;20039;-70
2022/08/20 04:29:35;;;;;;;8.63;1.95;;;17.10;99.90;;;;;;5127191;27;20039;-70
2022/08/20 04:32:03;;;;;;;11.38;2.08;;;17.10;99.90;;;;;;5124527;27;20039;-70
2022/08/20 04:34:28;;;;;;;9.55;2.05;;;17.00;99.90;;;;;;5127311;27;20095;-70
2022/08/20 04:36:54;;;;;;;12.48;2.17;;;17.10;99.90;;;;;;5131058;27;20042;-70
2022/08/20 04:39:20;;;;;;;10.90;2.10;;;17.00;99.90;;;;;;5129815;27;20043;-70
2022/08/20 04:41:46;;;;;;;12.35;1.95;;;17.00;99.90;;;;;;5108823;27;20047;-71
2022/08/20 04:44:12;;;;;;;9.55;2.28;;;17.00;99.90;;;;;;5123060;27;20039;-71
2022/08/20 04:46:39;;;;;;;7.47;1.90;;;17.00;99.90;;;;;;5116799;27;20110;-71
2022/08/20 04:49:05;;;;;;;8.35;2.08;;;17.00;99.90;;;;;;5113186;27;20046;-71
2022/08/20 04:51:32;;;;;;;9.68;2.28;;;17.00;99.90;;;;;;5115449;27;22279;-72
2022/08/20 04:54:01;;;;;;;8.38;1.95;;;16.90;99.90;;;;;;5118413;27;20043;-71
2022/08/20 04:56:30;;;;;;;9.80;2.20;;;17.00;99.90;;;;;;5126848;27;20043;-71
2022/08/20 04:59:00;;;;;;;13.20;2.50;;;16.90;99.90;;;;;;5124839;27;20122;-71
2022/08/20 05:01:26;;;;;;;9.23;2.30;;;16.90;99.90;;;;;;5126454;27;20051;-71
2022/08/20 05:03:53;;;;;;;11.35;2.35;;;16.90;99.90;;;;;;5105508;28;20515;-71
2022/08/20 05:06:23;;;;;;;9.80;2.20;;;16.80;99.90;;;;;;5105144;28;20408;-71
2022/08/20 05:08:49;;;;;;;10.48;2.25;;;16.80;99.90;;;;;;5106123;28;20040;-71
2022/08/20 05:11:14;;;;;;;10.20;2.10;;;16.80;99.90;;;;;;5088689;28;20059;-71
2022/08/20 05:13:41;;;;;;;8.43;1.83;;;16.80;99.90;;;;;;5099862;28;20039;-70
2022/08/20 05:16:08;;;;;;;9.70;2.10;;;16.80;99.90;;;;;;5090676;28;20046;-71
2022/08/20 05:18:34;;;;;;;8.75;2.00;;;16.80;99.90;;;;;;5086542;28;20097;-70
2022/08/20 05:21:07;;;;;;;8.20;2.17;;;16.70;99.90;;;;;;5085003;28;20043;-70
2022/08/20 05:23:40;;;;;;;12.15;2.58;;;16.70;99.90;;;;;;5088160;28;20503;-70
2022/08/20 05:26:07;;;;;;;8.90;2.15;;;16.70;99.90;;;;;;5069113;28;20051;-70
2022/08/20 05:28:34;;;;;;;11.18;2.50;;;16.70;99.90;;;;;;5092110;28;20075;-70
2022/08/20 05:31:01;;;;;;;11.18;1.88;;;16.70;99.90;;;;;;5088948;28;20044;-71
2022/08/20 05:33:27;;;;;;;8.00;2.30;;;16.70;99.90;;;;;;5085118;28;20048;-71
2022/08/20 05:35:53;;;;;;;9.48;2.28;;;16.60;99.90;;;;;;5086162;28;20408;-70
2022/08/20 05:38:23;;;;;;;7.50;2.05;;;16.60;99.90;;;;;;5086433;28;20040;-70
2022/08/20 05:40:50;;;;;;;9.60;2.15;;;16.60;99.90;;;;;;5082861;28;20058;-70
2022/08/20 05:43:17;;;;;;;8.90;2.13;;;16.60;99.90;;;;;;5094614;28;20044;-70
2022/08/20 05:45:44;;;;;;;10.77;2.42;;;16.60;99.90;;;;;;5078125;28;20051;-70
2022/08/20 05:48:12;;;;;;;8.15;2.05;;;16.60;99.90;;;;;;5093985;28;20082;-70
2022/08/20 05:50:41;;;;;;;10.07;2.13;;;16.70;99.90;;;;;;5086455;28;20096;-70
2022/08/20 05:53:07;;;;;;;8.65;2.05;;;16.70;99.90;;;;;;5076587;28;20039;-70
2022/08/20 05:55:36;;;;;;;15.52;3.05;;;16.70;99.90;;;;;;5085342;28;20043;-70
2022/08/20 05:58:05;;;;;;;9.20;2.60;;;16.80;99.90;;;;;;5072658;28;20047;-70
2022/08/20 06:00:33;;;;;;;12.57;2.45;;;16.80;99.90;;;;;;5076894;27;20036;-70
2022/08/20 06:05:43;;;;;;;8.80;2.15;;;16.90;99.90;;;;;;5126917;27;20426;-70
2022/08/20 06:08:10;;;;;;;10.68;2.50;;;16.90;99.90;;;;;;5112832;27;20066;-70
2022/08/20 06:10:37;;;;;;;16.27;2.30;;;16.80;99.90;;;;;;5113175;27;20566;-70
2022/08/20 06:13:03;;;;;;;12.02;2.28;;;16.90;99.90;;;;;;5134568;27;20071;-70
2022/08/20 06:15:30;;;;;;;8.85;2.00;;;17.00;99.90;;;;;;5136303;27;20081;-70
2022/08/20 06:17:56;;;;;;;9.88;1.90;;;17.00;99.90;;;;;;5114742;27;20122;-70
2022/08/20 06:20:22;;;;;;;8.98;1.70;;;17.00;99.90;;;;;;5124693;27;20039;-70
2022/08/20 06:22:48;;;;;;;11.02;1.70;;;17.10;99.90;;;;;;5148393;27;20386;-70
2022/08/20 06:25:13;;;;;;;7.65;1.73;;;17.10;99.90;;;;;;5133714;27;20054;-70
2022/08/20 06:27:41;;;;;;;6.53;1.52;;;17.10;99.90;;;;;;5140874;27;20054;-71
2022/08/20 06:30:10;;;;;;;8.52;1.65;;;17.10;99.90;;;;;;5120403;27;20039;-71
2022/08/20 06:32:36;;;;;;;7.60;1.65;;;17.20;99.90;;;;;;5131503;27;20051;-71
2022/08/20 06:35:04;;;;;;;9.75;1.70;;;17.20;99.90;;;;;;5133506;27;20038;-71
2022/08/20 06:37:32;;;;;;;7.15;1.70;;;17.20;99.90;;;;;;5152984;27;20508;-71
2022/08/20 06:40:04;;;;;;;10.77;1.67;;;17.20;99.90;;;;;;5129052;27;20038;-71
2022/08/20 06:42:30;;;;;;;13.40;1.90;;;17.30;99.90;;;;;;5111585;27;20047;-71
2022/08/20 06:44:58;;;;;;;10.07;1.70;;;17.40;99.90;;;;;;5128504;27;20071;-71
2022/08/20 06:47:24;;;;;;;8.80;1.50;;;17.30;99.90;;;;;;5120387;27;20043;-71
2022/08/20 06:49:50;;;;;;;7.78;1.20;;;17.40;99.90;;;;;;5167095;27;20577;-71
2022/08/20 06:52:16;;;;;;;13.23;1.75;;;17.40;99.90;;;;;;5128988;27;20039;-71
2022/08/20 06:54:43;;;;;;;10.93;1.40;;;17.40;99.90;;;;;;5115323;27;20095;-71
2022/08/20 06:57:08;;;;;;;5.65;1.20;;;17.40;99.90;;;;;;5133783;27;20126;-71
2022/08/20 06:59:35;;;;;;;9.38;1.58;;;17.50;99.90;;;;;;5144673;27;20122;-71
2022/08/20 07:02:02;;;;;;;6.15;1.23;;;17.50;99.90;;;;;;5095556;27;20055;-71
2022/08/20 07:04:28;;;;;;;8.00;1.45;;;17.50;99.90;;;;;;5096340;27;20126;-71
2022/08/20 07:06:56;;;;;;;8.30;1.70;;;17.50;99.90;;;;;;5097399;27;20458;-71
2022/08/20 07:09:23;;;;;;;8.02;1.55;;;17.50;99.90;;;;;;5106535;27;20419;-70
2022/08/20 07:11:49;;;;;;;12.80;2.38;;;17.60;99.90;;;;;;5093530;27;20550;-70
2022/08/20 07:14:17;;;;;;;7.70;1.40;;;17.50;99.90;;;;;;5100238;28;20058;-71
2022/08/20 07:16:43;;;;;;;9.35;1.83;;;17.60;99.90;;;;;;5089787;28;20544;-71
2022/08/20 07:19:09;;;;;;;12.15;1.77;;;17.70;99.90;;;;;;5096634;28;20048;-71
2022/08/20 07:21:35;;;;;;;11.60;1.65;;;17.70;99.90;;;;;;5085110;28;20519;-71
2022/08/20 07:24:02;;;;;;;8.68;1.50;;;17.80;99.90;;;;;;5102664;28;20145;-72
2022/08/20 07:26:28;;;;;;;6.95;1.20;;;17.80;99.90;;;;;;5086499;28;20097;-71
2022/08/20 07:28:53;;;;;;;8.02;1.38;;;17.90;99.90;;;;;;5103214;28;20044;-71
2022/08/20 07:34:04;;;;;;;11.32;1.75;;;18.20;99.90;;;;;;5100536;28;20192;-71
2022/08/20 07:36:30;;;;;;;7.75;1.30;;;18.40;99.90;;;;;;5088524;28;20130;-71
2022/08/20 07:38:56;;;;;;;7.90;1.10;;;18.50;99.90;;;;;;5106579;28;20039;-71
2022/08/20 07:41:22;;;;;;;7.00;1.45;;;18.60;99.90;;;;;;5102355;27;20042;-71
2022/08/20 07:43:47;;;;;;;9.98;1.58;;;18.80;99.90;;;;;;5098928;28;20403;-70
2022/08/20 07:46:16;;;;;;;6.85;1.40;;;19.00;99.90;;;;;;5094840;27;20040;-70
2022/08/20 07:48:45;;;;;;;8.75;1.48;;;19.20;99.90;;;;;;5103615;28;20039;-71
2022/08/20 07:51:12;;;;;;;10.95;1.73;;;19.40;99.90;;;;;;5104459;27;20100;-71
2022/08/20 07:53:39;;;;;;;7.10;1.55;;;19.60;99.90;;;;;;5101098;28;20472;-71
2022/08/20 07:56:11;;;;;;;7.22;1.50;;;19.70;99.90;;;;;;5097390;28;20047;-71
2022/08/20 07:58:41;;;;;;;7.63;1.30;;;19.90;99.90;;;;;;5104844;28;20036;-71
2022/08/20 08:01:09;;;;;;;10.77;1.38;;;20.00;99.90;;;;;;5095357;28;20055;-71
2022/08/20 08:03:36;;;;;;;6.90;2.17;;;20.20;99.90;;;;;;5092736;28;20138;-70
2022/08/20 08:06:02;;;;;;;6.82;1.40;;;20.40;99.90;;;;;;5095074;27;20047;-72
2022/08/20 08:08:31;;;;;;;8.18;1.65;;;20.50;99.90;;;;;;5089633;27;20146;-72
2022/08/20 08:11:00;;;;;;;7.13;1.50;;;20.60;99.90;;;;;;5091716;27;20048;-72
2022/08/20 08:13:31;;;;;;;8.75;1.95;;;20.80;99.90;;;;;;5102733;27;20434;-72
2022/08/20 08:16:00;;;;;;;10.70;1.40;;;20.90;99.90;;;;;;5100923;28;20108;-72
2022/08/20 08:18:32;;;;;;;9.75;1.25;;;21.00;99.90;;;;;;5100201;28;20297;-72
2022/08/20 08:20:58;;;;;;;7.70;1.48;;;21.10;99.90;;;;;;5092770;28;20074;-71
2022/08/20 08:23:24;;;;;;;9.48;1.58;;;21.20;99.90;;;;;;5086811;28;20047;-72
2022/08/20 08:25:50;;;;;;;12.25;2.22;;;21.30;99.90;;;;;;5091679;28;20369;-71
2022/08/20 08:28:17;;;;;;;8.20;1.65;;;21.40;99.90;;;;;;5085865;28;20564;-71
2022/08/20 08:30:45;;;;;;;10.73;1.60;;;21.40;99.90;;;;;;5076606;28;20435;-71
2022/08/20 08:33:32;;;;;;;11.80;1.65;;;21.50;99.90;;;;;;5093356;28;20287;-72
2022/08/20 08:36:02;;;;;;;8.35;1.73;;;21.60;99.90;;;;;;5094583;27;20039;-72
2022/08/20 08:38:29;;;;;;;7.65;1.30;;;21.70;99.90;;;;;;5096531;28;20126;-71
2022/08/20 08:40:57;;;;;;;8.25;1.48;;;21.70;99.90;;;;;;5098423;27;20058;-72
2022/08/20 08:43:26;;;;;;;8.10;1.67;;;21.80;99.90;;;;;;5097167;27;20051;-72
2022/08/20 08:46:02;;;;;;;9.63;1.60;;;21.80;99.90;;;;;;5096896;28;20044;-71
2022/08/20 08:48:36;;;;;;;7.18;1.55;;;21.80;99.90;;;;;;5100048;28;20056;-72
2022/08/20 08:51:06;;;;;;;10.25;1.85;;;21.80;99.90;;;;;;5097550;28;20051;-72
2022/08/20 08:53:36;;;;;;;7.78;1.40;;;21.80;99.90;;;;;;5101907;28;20050;-72
2022/08/20 08:56:06;;;;;;;10.55;1.77;;;21.90;99.90;;;;;;5099626;28;20048;-72
2022/08/20 08:58:33;;;;;;;7.20;1.45;;;22.00;99.90;;;;;;5097585;28;20051;-72
2022/08/20 09:01:02;;;;;;;8.05;1.80;;;22.20;99.90;;;;;;5105099;27;20444;-72
2022/08/20 09:03:36;;;;;;;10.07;1.58;;;22.20;99.90;;;;;;5119188;27;20043;-72
2022/08/20 09:06:03;;;;;;;6.65;1.58;;;22.30;99.90;;;;;;5118044;27;20062;-72
2022/08/20 09:08:43;;;;;;;8.00;1.48;;;22.30;99.90;;;;;;5129985;27;21262;-72
2022/08/20 09:11:09;;;;;;;10.05;1.98;;;22.40;99.90;;;;;;5113391;27;20039;-72
2022/08/20 09:13:35;;;;;;;7.43;1.30;;;22.40;99.90;;;;;;5108604;27;20548;-72
2022/08/20 09:16:01;;;;;;;7.57;1.33;;;22.50;99.90;;;;;;5117763;27;20585;-72
2022/08/20 09:18:27;;;;;;;5.68;1.40;;;22.50;99.90;;;;;;5104346;27;20038;-72
2022/08/20 09:20:52;;;;;;;7.15;1.20;;;22.60;99.90;;;;;;5117872;27;20388;-72
2022/08/20 09:23:18;;;;;;;6.95;1.50;;;22.70;99.90;;;;;;5123672;27;20122;-70
2022/08/20 09:25:44;;;;;;;9.18;1.73;;;22.70;99.90;;;;;;5117712;27;20045;-69
2022/08/20 09:28:10;;;;;;;6.75;1.50;;;22.80;99.90;;;;;;5137099;27;20039;-70
2022/08/20 09:30:35;;;;;;;6.07;1.33;;;22.80;99.90;;;;;;5113624;27;20100;-70
2022/08/20 09:33:01;;;;;;;7.85;1.52;;;22.90;99.90;;;;;;5120527;27;20424;-70
2022/08/20 09:35:28;;;;;;;6.70;1.55;;;22.90;99.90;;;;;;5115984;27;20046;-70
2022/08/20 09:37:54;;;;;;;8.93;1.85;;;23.00;99.90;;;;;;5110757;27;20384;-70
2022/08/20 09:40:21;;;;;;;6.25;1.58;;;23.00;99.90;;;;;;5097466;27;20050;-71
2022/08/20 09:42:48;;;;;;;5.43;1.10;;;23.00;99.90;;;;;;5119976;27;20039;-70
2022/08/20 09:45:14;;;;;;;7.97;2.20;;;23.10;99.90;;;;;;5106629;27;20042;-70
2022/08/20 09:47:43;;;;;;;8.65;1.70;;;23.10;99.90;;;;;;5106919;27;20586;-70
2022/08/20 09:50:08;;;;;;;7.35;2.05;;;23.20;99.90;;;;;;5140206;27;20164;-71
2022/08/20 09:52:39;;;;;;;9.52;1.77;;;23.20;99.90;;;;;;5146028;27;20295;-71
2022/08/20 09:55:16;;;;;;;;;;;23.20;99.90;;;;;;5126607;27;20050;-71
2022/08/20 09:57:42;;;;;;;8.15;1.60;;;23.10;99.90;;;;;;5135577;27;20055;-71
2022/08/20 10:00:10;;;;;;;6.13;1.27;;;23.10;99.90;;;;;;5138846;27;20125;-69
2022/08/20 10:02:35;;;;;;;8.35;2.05;;;23.10;99.90;;;;;;5103846;27;20046;-71
2022/08/20 10:05:01;;;;;;;7.05;1.30;;;23.00;99.90;;;;;;5136030;27;20115;-71
2022/08/20 10:07:27;;;;;;;5.38;1.27;;;23.10;99.90;;;;;;5148548;27;20042;-70
2022/08/20 10:09:53;;;;;;;7.82;1.50;;;23.10;99.90;;;;;;5117693;27;20050;-71
2022/08/20 10:12:18;;;;;;;7.50;1.38;;;23.10;99.90;;;;;;5124419;27;20034;-71
2022/08/20 10:14:44;;;;;;;7.65;1.65;;;23.10;99.90;;;;;;5128608;27;20095;-73
2022/08/20 10:17:10;;;;;;;6.40;1.60;;;23.20;99.90;;;;;;5152613;27;20049;-72
2022/08/20 10:19:35;;;;;;;6.55;1.30;;;23.20;99.90;;;;;;5147748;27;20034;-72
2022/08/20 10:22:01;;;;;;;6.25;1.83;;;23.30;99.90;;;;;;5146375;27;20520;-73
2022/08/20 10:24:28;;;;;;;5.43;1.58;;;23.30;99.90;;;;;;5128303;27;20042;-73
2022/08/20 10:26:57;;;;;;;8.63;1.33;;;23.30;99.90;;;;;;5128032;27;20469;-69
2022/08/20 10:29:23;;;;;;;6.40;1.33;;;23.30;99.90;;;;;;5127904;27;20048;-69
2022/08/20 10:31:49;;;;;;;8.98;1.63;;;23.40;99.90;;;;;;5115328;27;20696;-69
2022/08/20 10:34:18;;;;;;;7.88;1.80;;;23.50;99.90;;;;;;5147837;27;20351;-69
2022/08/20 10:36:43;;;;;;;6.22;1.33;;;23.50;99.90;;;;;;5126636;27;20494;-71
2022/08/20 10:39:09;;;;;;;6.75;1.70;;;23.50;99.90;;;;;;5142607;27;20039;-69
2022/08/20 10:41:35;;;;;;;10.98;1.70;;;23.50;99.90;;;;;;5143011;27;20422;-70
2022/08/20 10:44:02;;;;;;;8.00;1.83;;;23.40;99.90;;;;;;5134654;27;20071;-73
2022/08/20 10:46:28;;;;;;;7.72;1.45;;;23.40;99.90;;;;;;5141378;27;20050;-73
2022/08/20 10:48:54;;;;;;;16.65;2.42;;;23.40;99.90;;;;;;5120434;27;20034;-73
2022/08/20 10:51:20;;;;;;;6.28;1.60;;;23.30;99.90;;;;;;5103589;27;20118;-73
2022/08/20 10:53:45;;;;;;;6.68;1.48;;;23.30;99.90;;;;;;5127001;27;20137;-73
2022/08/20 10:56:11;;;;;;;8.68;1.65;;;23.20;99.90;;;;;;5114827;27;20553;-69
2022/08/20 10:58:37;;;;;;;8.82;1.48;;;23.10;99.90;;;;;;5120960;27;20132;-69
2022/08/20 11:01:03;;;;;;;9.10;1.70;;;23.10;99.90;;;;;;5141948;27;20047;-69
2022/08/20 11:03:28;;;;;;;6.72;1.23;;;23.10;99.90;;;;;;5127074;27;20035;-68
2022/08/20 11:05:54;;;;;;;7.03;1.80;;;23.10;99.90;;;;;;5107316;27;20103;-69
2022/08/20 11:08:20;;;;;;;8.85;1.55;;;23.00;99.90;;;;;;5145086;27;20694;-69
2022/08/20 11:10:46;;;;;;;6.93;1.50;;;23.00;99.90;;;;;;5127321;27;20047;-69
2022/08/20 11:13:11;;;;;;;11.95;2.10;;;23.00;99.90;;;;;;5115369;27;20050;-69
2022/08/20 11:15:41;;;;;;;11.15;1.75;;;22.90;99.90;;;;;;5124778;27;20041;-73
2022/08/20 11:18:07;;;;;;;8.93;1.88;;;22.90;99.90;;;;;;5147206;27;20450;-73
2022/08/20 11:20:34;;;;;;;9.88;1.70;;;22.90;99.90;;;;;;5139169;27;20039;-73
2022/08/20 11:23:00;;;;;;;7.90;1.70;;;22.90;99.90;;;;;;5111168;27;20051;-73
2022/08/20 11:25:26;;;;;;;9.68;1.80;;;22.90;99.90;;;;;;5151778;27;20505;-73
2022/08/20 11:27:53;;;;;;;7.32;1.55;;;22.80;99.90;;;;;;5127179;27;20415;-73
2022/08/20 11:30:23;;;;;;;7.07;1.63;;;22.80;99.90;;;;;;5127654;27;20443;-73
2022/08/20 11:32:48;;;;;;;8.40;1.85;;;22.80;99.90;;;;;;5137378;27;20087;-72
2022/08/20 11:35:20;;;;;;;12.27;1.70;;;22.90;99.90;;;;;;5138579;27;20057;-73
2022/08/20 11:37:45;;;;;;;7.15;1.73;;;23.00;99.90;;;;;;5135087;27;21283;-73
2022/08/20 11:40:12;;;;;;;10.20;1.70;;;23.10;99.90;;;;;;5103672;27;20155;-72
2022/08/20 11:42:38;;;;;;;7.90;1.70;;;23.10;99.90;;;;;;5145102;27;20031;-74
2022/08/20 11:45:05;;;;;;;11.15;1.80;;;23.10;99.90;;;;;;5130736;27;20039;-73
2022/08/20 11:47:34;;;;;;;7.30;1.63;;;23.10;99.90;;;;;;5138899;27;20362;-72
2022/08/20 11:50:10;;;;;;;8.02;1.40;;;23.10;99.90;;;;;;5106051;27;20372;-73
2022/08/20 11:52:36;;;;;;;7.00;1.30;;;23.20;99.90;;;;;;5106151;27;20070;-72
2022/08/20 11:55:05;;;;;;;8.45;1.65;;;23.20;99.90;;;;;;5113886;27;20043;-73
2022/08/20 11:57:33;;;;;;;6.85;1.60;;;23.20;99.90;;;;;;5141492;27;20067;-73
2022/08/20 12:00:00;;;;;;;10.32;1.73;;;23.20;99.90;;;;;;5117690;27;20102;-73
2022/08/20 12:02:27;;;;;;;7.95;1.58;;;23.10;99.90;;;;;;5122405;27;20123;-74
2022/08/20 12:04:53;;;;;;;8.75;1.45;;;23.10;99.90;;;;;;5139765;27;20050;-71
2022/08/20 12:07:22;;;;;;;9.07;1.70;;;23.00;99.90;;;;;;5131926;27;20081;-74
2022/08/20 12:09:48;;;;;;;5.50;1.30;;;23.00;99.90;;;;;;5114770;27;20494;-72
2022/08/20 12:12:19;;;;;;;7.63;1.83;;;23.10;99.90;;;;;;5122194;27;20035;-73
2022/08/20 12:14:45;;;;;;;5.80;1.30;;;23.10;99.90;;;;;;5108416;27;20053;-71
2022/08/20 12:17:18;;;;;;;7.28;1.77;;;23.10;99.90;;;;;;5105399;27;20050;-72
2022/08/20 12:19:44;;;;;;;8.55;1.70;;;23.10;99.90;;;;;;5109733;27;20543;-72
2022/08/20 12:22:10;;;;;;;7.40;1.45;;;23.30;99.90;;;;;;5107932;27;20133;-73
2022/08/20 12:24:37;;;;;;;9.93;1.80;;;23.30;99.90;;;;;;5127008;27;20435;-72
2022/08/20 12:27:16;;;;;;;9.07;2.00;;;23.40;99.90;;;;;;5108130;27;20531;-73
2022/08/20 12:29:44;;;;;;;7.15;1.55;;;23.50;99.90;;;;;;5109412;27;20395;-73
2022/08/20 12:32:10;;;;;;;8.32;1.70;;;23.50;99.90;;;;;;5131313;27;20043;-73
2022/08/20 12:34:38;;;;;;;9.38;1.83;;;23.50;99.90;;;;;;5123175;27;20035;-72
2022/08/20 12:37:08;;;;;;;9.15;1.77;;;23.50;99.90;;;;;;5121094;27;20103;-72
2022/08/20 12:39:36;;;;;;;7.50;1.73;;;23.50;99.90;;;;;;5145803;27;20099;-72
2022/08/20 12:42:03;;;;;;;9.60;1.88;;;23.40;99.90;;;;;;5144390;27;20034;-72
2022/08/20 12:44:29;;;;;;;7.30;1.50;;;23.30;99.90;;;;;;5143266;27;20532;-72
2022/08/20 12:47:10;;;;;;;8.45;1.63;;;23.30;99.90;;;;;;5104861;27;20042;-73
2022/08/20 12:49:37;;;;;;;7.80;1.88;;;23.30;99.90;;;;;;5121871;27;20046;-73
2022/08/20 12:52:03;;;;;;;7.78;1.83;;;23.40;99.90;;;;;;5120144;27;20143;-72